EGPD/ABZ METAR and TAF weather

Enter ICAO airport designator
Station Type Date Time Source
EGPD METAR 2019/12/11 17:20 UTC NOAA

EGPD 111720Z AUTO 23019KT 9999 NCD 04/M01 Q0988


Station Type Date Time Source
EGPD Decoded METAR 2019/12/11 17:20 UTC NOAA

Aberdeen / Dyce, United Kingdom (EGPD) 57-12N 002-13W 0M
Dec 11, 2019 - 12:20 PM EST / 2019.12.11 1720 UTC
Wind: from the SW (230 degrees) at 22 MPH (19 KT):0
Visibility: greater than 7 mile(s):0
Temperature: 39 F (4 C)
Dew Point: 30 F (-1 C)
Relative Humidity: 69%
Pressure (altimeter): 29.18 in. Hg (0988 hPa)
ob: EGPD 111720Z AUTO 23019KT 9999 NCD 04/M01 Q0988
cycle: 17

Station Type Date Time Source
EGPD TAF 2019/12/11 18:09 UTC NOAA

TAF EGPD 111657Z 1118/1218 22012KT 9999 FEW020
TEMPO 1118/1206 24018G28KT
BECMG 1206/1209 16009KT
TEMPO 1206/1218 BKN012 PROB30
TEMPO 1215/1218 6000 RA SHRA BKN006

Example: see airport list